sensor_id;sensor_type;location;lat;lon;timestamp;temperature;humidity
11836;DHT22;5977;51.972;7.640;2022-09-09T00:00:56;23.40;74.30
11836;DHT22;5977;51.972;7.640;2022-09-09T00:03:27;23.30;74.50
11836;DHT22;5977;51.972;7.640;2022-09-09T00:06:06;23.40;74.60
11836;DHT22;5977;51.972;7.640;2022-09-09T00:08:42;23.40;74.40
11836;DHT22;5977;51.972;7.640;2022-09-09T00:11:17;23.50;74.50
11836;DHT22;5977;51.972;7.640;2022-09-09T00:14:00;23.50;74.10
11836;DHT22;5977;51.972;7.640;2022-09-09T00:16:35;23.50;74.30
11836;DHT22;5977;51.972;7.640;2022-09-09T00:19:07;23.50;74.00
11836;DHT22;5977;51.972;7.640;2022-09-09T00:21:49;23.20;74.20
11836;DHT22;5977;51.972;7.640;2022-09-09T00:24:24;23.10;75.00
11836;DHT22;5977;51.972;7.640;2022-09-09T00:26:59;23.00;75.30
11836;DHT22;5977;51.972;7.640;2022-09-09T00:29:35;22.90;75.80
11836;DHT22;5977;51.972;7.640;2022-09-09T00:32:12;22.80;76.70
11836;DHT22;5977;51.972;7.640;2022-09-09T00:34:46;23.00;76.40
11836;DHT22;5977;51.972;7.640;2022-09-09T00:37:19;23.20;75.90
11836;DHT22;5977;51.972;7.640;2022-09-09T00:39:49;23.40;75.40
11836;DHT22;5977;51.972;7.640;2022-09-09T00:42:20;23.40;75.10
11836;DHT22;5977;51.972;7.640;2022-09-09T00:44:59;23.40;75.10
11836;DHT22;5977;51.972;7.640;2022-09-09T00:47:39;23.50;74.90
11836;DHT22;5977;51.972;7.640;2022-09-09T00:50:29;23.40;74.90
11836;DHT22;5977;51.972;7.640;2022-09-09T00:53:10;23.50;74.70
11836;DHT22;5977;51.972;7.640;2022-09-09T00:55:46;23.60;74.60
11836;DHT22;5977;51.972;7.640;2022-09-09T00:58:15;23.60;74.50
11836;DHT22;5977;51.972;7.640;2022-09-09T01:00:45;23.50;74.80
11836;DHT22;5977;51.972;7.640;2022-09-09T01:03:21;23.40;75.00
11836;DHT22;5977;51.972;7.640;2022-09-09T01:06:00;23.40;75.00
11836;DHT22;5977;51.972;7.640;2022-09-09T01:08:43;23.30;75.30
11836;DHT22;5977;51.972;7.640;2022-09-09T01:11:20;23.20;75.80
11836;DHT22;5977;51.972;7.640;2022-09-09T01:13:53;23.20;76.00
11836;DHT22;5977;51.972;7.640;2022-09-09T01:16:29;23.30;75.80
11836;DHT22;5977;51.972;7.640;2022-09-09T01:18:58;23.40;75.40
11836;DHT22;5977;51.972;7.640;2022-09-09T01:21:34;23.40;75.20
11836;DHT22;5977;51.972;7.640;2022-09-09T01:24:20;23.30;75.10
11836;DHT22;5977;51.972;7.640;2022-09-09T01:27:01;23.10;75.80
11836;DHT22;5977;51.972;7.640;2022-09-09T01:29:30;23.00;75.90
11836;DHT22;5977;51.972;7.640;2022-09-09T01:31:59;23.20;75.90
11836;DHT22;5977;51.972;7.640;2022-09-09T01:34:33;23.20;75.90
11836;DHT22;5977;51.972;7.640;2022-09-09T01:37:03;22.90;76.20
11836;DHT22;5977;51.972;7.640;2022-09-09T01:39:33;22.80;76.70
11836;DHT22;5977;51.972;7.640;2022-09-09T01:42:11;23.00;77.10
11836;DHT22;5977;51.972;7.640;2022-09-09T01:44:40;23.00;76.90
11836;DHT22;5977;51.972;7.640;2022-09-09T01:47:08;23.00;76.90
11836;DHT22;5977;51.972;7.640;2022-09-09T01:49:53;22.90;76.60
11836;DHT22;5977;51.972;7.640;2022-09-09T01:52:25;22.70;77.50
11836;DHT22;5977;51.972;7.640;2022-09-09T01:54:54;23.00;77.30
11836;DHT22;5977;51.972;7.640;2022-09-09T01:57:30;22.90;77.20
11836;DHT22;5977;51.972;7.640;2022-09-09T02:00:05;22.90;76.70
11836;DHT22;5977;51.972;7.640;2022-09-09T02:02:48;23.00;76.90
11836;DHT22;5977;51.972;7.640;2022-09-09T02:05:33;22.90;76.60
11836;DHT22;5977;51.972;7.640;2022-09-09T02:08:06;22.90;77.40
11836;DHT22;5977;51.972;7.640;2022-09-09T02:10:51;23.00;77.20
11836;DHT22;5977;51.972;7.640;2022-09-09T02:13:36;22.80;77.00
11836;DHT22;5977;51.972;7.640;2022-09-09T02:16:13;22.90;77.30
11836;DHT22;5977;51.972;7.640;2022-09-09T02:18:47;22.90;76.80
11836;DHT22;5977;51.972;7.640;2022-09-09T02:21:20;22.90;76.70
11836;DHT22;5977;51.972;7.640;2022-09-09T02:23:49;23.10;76.60
11836;DHT22;5977;51.972;7.640;2022-09-09T02:26:20;23.20;76.70
11836;DHT22;5977;51.972;7.640;2022-09-09T02:29:00;23.20;76.20
11836;DHT22;5977;51.972;7.640;2022-09-09T02:31:29;22.80;76.30
11836;DHT22;5977;51.972;7.640;2022-09-09T02:34:04;22.80;77.50
11836;DHT22;5977;51.972;7.640;2022-09-09T02:36:34;22.80;77.30
11836;DHT22;5977;51.972;7.640;2022-09-09T02:39:05;23.00;76.90
11836;DHT22;5977;51.972;7.640;2022-09-09T02:41:38;23.10;76.60
11836;DHT22;5977;51.972;7.640;2022-09-09T02:44:11;23.00;76.70
11836;DHT22;5977;51.972;7.640;2022-09-09T02:47:07;23.10;76.50
11836;DHT22;5977;51.972;7.640;2022-09-09T02:49:46;23.10;76.50
11836;DHT22;5977;51.972;7.640;2022-09-09T02:52:20;23.10;76.20
11836;DHT22;5977;51.972;7.640;2022-09-09T02:54:59;23.10;76.60
11836;DHT22;5977;51.972;7.640;2022-09-09T02:57:28;23.10;76.40
11836;DHT22;5977;51.972;7.640;2022-09-09T03:00:00;22.90;76.20
11836;DHT22;5977;51.972;7.640;2022-09-09T03:02:30;23.10;76.80
11836;DHT22;5977;51.972;7.640;2022-09-09T03:05:04;23.10;76.40
11836;DHT22;5977;51.972;7.640;2022-09-09T03:07:32;22.70;76.40
11836;DHT22;5977;51.972;7.640;2022-09-09T03:10:00;23.00;76.70
11836;DHT22;5977;51.972;7.640;2022-09-09T03:12:28;23.00;77.00
11836;DHT22;5977;51.972;7.640;2022-09-09T03:14:56;23.00;76.90
11836;DHT22;5977;51.972;7.640;2022-09-09T03:17:25;22.90;76.60
11836;DHT22;5977;51.972;7.640;2022-09-09T03:19:55;22.90;77.30
11836;DHT22;5977;51.972;7.640;2022-09-09T03:22:25;23.00;77.00
11836;DHT22;5977;51.972;7.640;2022-09-09T03:24:54;22.60;77.40
11836;DHT22;5977;51.972;7.640;2022-09-09T03:27:22;22.50;78.00
11836;DHT22;5977;51.972;7.640;2022-09-09T03:29:51;22.80;77.90
11836;DHT22;5977;51.972;7.640;2022-09-09T03:32:24;22.70;77.40
11836;DHT22;5977;51.972;7.640;2022-09-09T03:34:54;22.80;77.80
11836;DHT22;5977;51.972;7.640;2022-09-09T03:37:22;22.80;77.00
11836;DHT22;5977;51.972;7.640;2022-09-09T03:39:50;22.80;78.00
11836;DHT22;5977;51.972;7.640;2022-09-09T03:42:19;23.00;77.50
11836;DHT22;5977;51.972;7.640;2022-09-09T03:44:50;22.90;77.20
11836;DHT22;5977;51.972;7.640;2022-09-09T03:47:22;22.70;77.80
11836;DHT22;5977;51.972;7.640;2022-09-09T03:49:56;22.80;78.10
11836;DHT22;5977;51.972;7.640;2022-09-09T03:52:24;22.50;78.40
11836;DHT22;5977;51.972;7.640;2022-09-09T03:54:53;22.40;78.90
11836;DHT22;5977;51.972;7.640;2022-09-09T03:57:22;22.30;80.10
11836;DHT22;5977;51.972;7.640;2022-09-09T03:59:50;22.20;80.00
11836;DHT22;5977;51.972;7.640;2022-09-09T04:02:17;22.30;80.10
11836;DHT22;5977;51.972;7.640;2022-09-09T04:04:45;22.30;80.20
11836;DHT22;5977;51.972;7.640;2022-09-09T04:07:15;22.30;79.80
11836;DHT22;5977;51.972;7.640;2022-09-09T04:09:43;22.30;80.50
11836;DHT22;5977;51.972;7.640;2022-09-09T04:12:13;22.30;80.10
11836;DHT22;5977;51.972;7.640;2022-09-09T04:14:41;22.20;80.40
11836;DHT22;5977;51.972;7.640;2022-09-09T04:17:09;22.30;80.20
11836;DHT22;5977;51.972;7.640;2022-09-09T04:19:37;22.20;80.50
11836;DHT22;5977;51.972;7.640;2022-09-09T04:22:05;22.10;80.80
11836;DHT22;5977;51.972;7.640;2022-09-09T04:24:34;22.10;81.10
11836;DHT22;5977;51.972;7.640;2022-09-09T04:27:03;22.10;81.40
11836;DHT22;5977;51.972;7.640;2022-09-09T04:29:33;22.10;81.90
11836;DHT22;5977;51.972;7.640;2022-09-09T04:32:01;22.00;81.70
11836;DHT22;5977;51.972;7.640;2022-09-09T04:34:29;22.30;81.90
11836;DHT22;5977;51.972;7.640;2022-09-09T04:36:58;22.30;81.10
11836;DHT22;5977;51.972;7.640;2022-09-09T04:39:27;22.20;81.30
11836;DHT22;5977;51.972;7.640;2022-09-09T04:41:58;22.10;81.90
11836;DHT22;5977;51.972;7.640;2022-09-09T04:44:26;22.10;82.10
11836;DHT22;5977;51.972;7.640;2022-09-09T04:46:54;22.10;81.70
11836;DHT22;5977;51.972;7.640;2022-09-09T04:49:22;22.10;82.20
11836;DHT22;5977;51.972;7.640;2022-09-09T04:51:50;22.00;82.60
11836;DHT22;5977;51.972;7.640;2022-09-09T04:54:18;22.00;82.50
11836;DHT22;5977;51.972;7.640;2022-09-09T04:56:46;22.00;82.80
11836;DHT22;5977;51.972;7.640;2022-09-09T04:59:16;22.20;82.40
11836;DHT22;5977;51.972;7.640;2022-09-09T05:01:48;22.10;82.30
11836;DHT22;5977;51.972;7.640;2022-09-09T05:04:16;22.10;82.40
11836;DHT22;5977;51.972;7.640;2022-09-09T05:06:46;22.20;82.40
11836;DHT22;5977;51.972;7.640;2022-09-09T05:09:14;22.40;81.10
11836;DHT22;5977;51.972;7.640;2022-09-09T05:11:43;22.30;81.60
11836;DHT22;5977;51.972;7.640;2022-09-09T05:14:30;22.30;81.20
11836;DHT22;5977;51.972;7.640;2022-09-09T05:17:00;22.30;81.30
11836;DHT22;5977;51.972;7.640;2022-09-09T05:19:27;22.20;81.20
11836;DHT22;5977;51.972;7.640;2022-09-09T05:21:57;22.20;81.80
11836;DHT22;5977;51.972;7.640;2022-09-09T05:24:33;22.20;81.80
11836;DHT22;5977;51.972;7.640;2022-09-09T05:27:02;22.20;82.00
11836;DHT22;5977;51.972;7.640;2022-09-09T05:29:33;22.20;82.80
11836;DHT22;5977;51.972;7.640;2022-09-09T05:32:03;22.10;82.70
11836;DHT22;5977;51.972;7.640;2022-09-09T05:34:32;22.10;82.50
11836;DHT22;5977;51.972;7.640;2022-09-09T05:37:00;22.20;82.30
11836;DHT22;5977;51.972;7.640;2022-09-09T05:39:28;22.30;81.60
11836;DHT22;5977;51.972;7.640;2022-09-09T05:41:56;22.20;82.00
11836;DHT22;5977;51.972;7.640;2022-09-09T05:44:24;22.30;82.10
11836;DHT22;5977;51.972;7.640;2022-09-09T05:46:55;22.30;81.80
11836;DHT22;5977;51.972;7.640;2022-09-09T05:49:24;22.40;81.60
11836;DHT22;5977;51.972;7.640;2022-09-09T05:51:53;22.50;81.50
11836;DHT22;5977;51.972;7.640;2022-09-09T05:54:22;22.60;80.70
11836;DHT22;5977;51.972;7.640;2022-09-09T05:56:51;22.50;80.90
11836;DHT22;5977;51.972;7.640;2022-09-09T05:59:20;22.30;80.80
11836;DHT22;5977;51.972;7.640;2022-09-09T06:01:51;22.40;81.60
11836;DHT22;5977;51.972;7.640;2022-09-09T06:04:26;22.20;80.90
11836;DHT22;5977;51.972;7.640;2022-09-09T06:06:54;22.10;82.20
11836;DHT22;5977;51.972;7.640;2022-09-09T06:09:22;21.90;82.50
11836;DHT22;5977;51.972;7.640;2022-09-09T06:11:50;21.80;83.20
11836;DHT22;5977;51.972;7.640;2022-09-09T06:14:20;21.80;83.80
11836;DHT22;5977;51.972;7.640;2022-09-09T06:16:50;21.60;83.60
11836;DHT22;5977;51.972;7.640;2022-09-09T06:19:22;21.50;85.50
11836;DHT22;5977;51.972;7.640;2022-09-09T06:21:57;21.60;85.50
11836;DHT22;5977;51.972;7.640;2022-09-09T06:24:26;21.40;85.90
11836;DHT22;5977;51.972;7.640;2022-09-09T06:26:57;21.50;86.80
11836;DHT22;5977;51.972;7.640;2022-09-09T06:29:28;21.60;85.80
11836;DHT22;5977;51.972;7.640;2022-09-09T06:31:56;21.60;85.90
11836;DHT22;5977;51.972;7.640;2022-09-09T06:34:26;21.00;88.30
11836;DHT22;5977;51.972;7.640;2022-09-09T06:36:58;21.10;89.90
11836;DHT22;5977;51.972;7.640;2022-09-09T06:39:32;21.10;89.60
11836;DHT22;5977;51.972;7.640;2022-09-09T06:42:00;21.50;88.10
11836;DHT22;5977;51.972;7.640;2022-09-09T06:44:47;21.50;88.00
11836;DHT22;5977;51.972;7.640;2022-09-09T06:47:25;21.50;87.80
11836;DHT22;5977;51.972;7.640;2022-09-09T06:49:55;21.30;88.40
11836;DHT22;5977;51.972;7.640;2022-09-09T06:52:25;21.20;89.30
11836;DHT22;5977;51.972;7.640;2022-09-09T06:54:55;21.00;90.10
11836;DHT22;5977;51.972;7.640;2022-09-09T06:57:25;21.30;90.10
11836;DHT22;5977;51.972;7.640;2022-09-09T07:00:07;21.30;89.60
11836;DHT22;5977;51.972;7.640;2022-09-09T07:02:35;21.20;90.30
11836;DHT22;5977;51.972;7.640;2022-09-09T07:05:08;21.30;89.80
11836;DHT22;5977;51.972;7.640;2022-09-09T07:07:38;21.20;90.60
11836;DHT22;5977;51.972;7.640;2022-09-09T07:10:08;21.10;90.30
11836;DHT22;5977;51.972;7.640;2022-09-09T07:12:37;20.80;92.30
11836;DHT22;5977;51.972;7.640;2022-09-09T07:15:09;21.10;90.70
11836;DHT22;5977;51.972;7.640;2022-09-09T07:17:40;21.40;90.30
11836;DHT22;5977;51.972;7.640;2022-09-09T07:20:08;21.00;90.80
11836;DHT22;5977;51.972;7.640;2022-09-09T07:22:38;21.00;91.10
11836;DHT22;5977;51.972;7.640;2022-09-09T07:25:07;21.20;90.70
11836;DHT22;5977;51.972;7.640;2022-09-09T07:27:36;21.10;90.60
11836;DHT22;5977;51.972;7.640;2022-09-09T07:30:05;21.30;90.80
11836;DHT22;5977;51.972;7.640;2022-09-09T07:32:34;21.60;89.00
11836;DHT22;5977;51.972;7.640;2022-09-09T07:35:02;21.30;88.80
11836;DHT22;5977;51.972;7.640;2022-09-09T07:37:30;21.60;89.00
11836;DHT22;5977;51.972;7.640;2022-09-09T07:39:59;21.30;89.00
11836;DHT22;5977;51.972;7.640;2022-09-09T07:42:29;21.50;89.20
11836;DHT22;5977;51.972;7.640;2022-09-09T07:44:57;21.50;89.40
11836;DHT22;5977;51.972;7.640;2022-09-09T07:47:25;22.10;86.80
11836;DHT22;5977;51.972;7.640;2022-09-09T07:49:53;21.80;87.20
11836;DHT22;5977;51.972;7.640;2022-09-09T07:52:26;21.90;86.30
11836;DHT22;5977;51.972;7.640;2022-09-09T07:55:00;21.80;86.50
11836;DHT22;5977;51.972;7.640;2022-09-09T07:57:29;22.20;86.20
11836;DHT22;5977;51.972;7.640;2022-09-09T07:59:57;22.50;84.30
11836;DHT22;5977;51.972;7.640;2022-09-09T08:02:25;23.10;81.40
11836;DHT22;5977;51.972;7.640;2022-09-09T08:04:55;22.60;81.40
11836;DHT22;5977;51.972;7.640;2022-09-09T08:07:24;22.60;84.80
11836;DHT22;5977;51.972;7.640;2022-09-09T08:09:54;22.60;85.80
11836;DHT22;5977;51.972;7.640;2022-09-09T08:12:27;22.60;88.00
11836;DHT22;5977;51.972;7.640;2022-09-09T08:14:56;22.40;90.00
11836;DHT22;5977;51.972;7.640;2022-09-09T08:17:28;22.40;87.60
11836;DHT22;5977;51.972;7.640;2022-09-09T08:19:57;22.40;85.30
11836;DHT22;5977;51.972;7.640;2022-09-09T08:22:32;22.60;87.90
11836;DHT22;5977;51.972;7.640;2022-09-09T08:25:00;22.50;87.20
11836;DHT22;5977;51.972;7.640;2022-09-09T08:27:32;22.70;87.70
11836;DHT22;5977;51.972;7.640;2022-09-09T08:29:59;22.70;85.10
11836;DHT22;5977;51.972;7.640;2022-09-09T08:32:29;22.60;87.30
11836;DHT22;5977;51.972;7.640;2022-09-09T08:34:58;22.30;84.40
11836;DHT22;5977;51.972;7.640;2022-09-09T08:37:29;22.30;84.80
11836;DHT22;5977;51.972;7.640;2022-09-09T08:39:58;22.00;86.10
11836;DHT22;5977;51.972;7.640;2022-09-09T08:42:42;22.20;85.50
11836;DHT22;5977;51.972;7.640;2022-09-09T08:45:35;22.90;83.00
11836;DHT22;5977;51.972;7.640;2022-09-09T08:48:17;22.70;82.80
11836;DHT22;5977;51.972;7.640;2022-09-09T08:50:50;23.00;82.30
11836;DHT22;5977;51.972;7.640;2022-09-09T08:53:27;23.20;81.50
11836;DHT22;5977;51.972;7.640;2022-09-09T08:55:58;23.10;79.60
11836;DHT22;5977;51.972;7.640;2022-09-09T08:58:41;22.90;80.10
11836;DHT22;5977;51.972;7.640;2022-09-09T09:04:32;23.10;78.20
11836;DHT22;5977;51.972;7.640;2022-09-09T09:07:09;22.90;77.90
11836;DHT22;5977;51.972;7.640;2022-09-09T09:09:48;23.10;77.40
11836;DHT22;5977;51.972;7.640;2022-09-09T09:12:20;23.30;76.50
11836;DHT22;5977;51.972;7.640;2022-09-09T09:14:51;23.60;76.70
11836;DHT22;5977;51.972;7.640;2022-09-09T09:17:20;23.90;77.40
11836;DHT22;5977;51.972;7.640;2022-09-09T09:19:49;23.90;75.70
11836;DHT22;5977;51.972;7.640;2022-09-09T09:22:19;23.90;75.30
11836;DHT22;5977;51.972;7.640;2022-09-09T09:24:53;23.90;75.10
11836;DHT22;5977;51.972;7.640;2022-09-09T09:27:32;24.00;75.40
11836;DHT22;5977;51.972;7.640;2022-09-09T09:30:15;24.10;73.80
11836;DHT22;5977;51.972;7.640;2022-09-09T09:32:57;24.30;74.10
11836;DHT22;5977;51.972;7.640;2022-09-09T09:35:26;24.30;72.60
11836;DHT22;5977;51.972;7.640;2022-09-09T09:37:55;24.30;71.80
11836;DHT22;5977;51.972;7.640;2022-09-09T09:40:49;24.40;72.50
11836;DHT22;5977;51.972;7.640;2022-09-09T09:43:20;24.50;72.10
11836;DHT22;5977;51.972;7.640;2022-09-09T09:45:50;24.30;70.30
11836;DHT22;5977;51.972;7.640;2022-09-09T09:48:38;24.40;69.70
11836;DHT22;5977;51.972;7.640;2022-09-09T09:51:10;24.80;68.80
11836;DHT22;5977;51.972;7.640;2022-09-09T09:53:42;24.90;68.30
11836;DHT22;5977;51.972;7.640;2022-09-09T09:56:13;24.70;67.50
11836;DHT22;5977;51.972;7.640;2022-09-09T09:58:50;24.80;68.00
11836;DHT22;5977;51.972;7.640;2022-09-09T10:01:24;24.60;71.20
11836;DHT22;5977;51.972;7.640;2022-09-09T10:03:55;24.20;73.70
11836;DHT22;5977;51.972;7.640;2022-09-09T10:06:32;24.00;72.60
11836;DHT22;5977;51.972;7.640;2022-09-09T10:09:01;23.90;75.70
11836;DHT22;5977;51.972;7.640;2022-09-09T10:11:40;23.90;77.60
11836;DHT22;5977;51.972;7.640;2022-09-09T10:14:17;24.10;76.50
11836;DHT22;5977;51.972;7.640;2022-09-09T10:16:57;24.60;74.30
11836;DHT22;5977;51.972;7.640;2022-09-09T10:19:30;25.00;73.10
11836;DHT22;5977;51.972;7.640;2022-09-09T10:22:15;25.30;71.20
11836;DHT22;5977;51.972;7.640;2022-09-09T10:25:13;25.50;68.90
11836;DHT22;5977;51.972;7.640;2022-09-09T10:27:54;25.40;65.10
11836;DHT22;5977;51.972;7.640;2022-09-09T10:30:38;25.20;65.70
11836;DHT22;5977;51.972;7.640;2022-09-09T10:33:18;25.40;66.60
11836;DHT22;5977;51.972;7.640;2022-09-09T10:35:54;25.60;64.70
11836;DHT22;5977;51.972;7.640;2022-09-09T10:38:30;25.20;64.10
11836;DHT22;5977;51.972;7.640;2022-09-09T10:41:13;25.10;67.30
11836;DHT22;5977;51.972;7.640;2022-09-09T10:44:06;25.10;67.90
11836;DHT22;5977;51.972;7.640;2022-09-09T10:46:45;24.90;67.10
11836;DHT22;5977;51.972;7.640;2022-09-09T10:49:26;24.70;66.30
11836;DHT22;5977;51.972;7.640;2022-09-09T10:52:06;24.40;64.50
11836;DHT22;5977;51.972;7.640;2022-09-09T10:54:50;24.50;66.10
11836;DHT22;5977;51.972;7.640;2022-09-09T10:57:27;24.60;64.30
11836;DHT22;5977;51.972;7.640;2022-09-09T11:00:02;24.50;66.40
11836;DHT22;5977;51.972;7.640;2022-09-09T11:02:33;24.50;67.20
11836;DHT22;5977;51.972;7.640;2022-09-09T11:09:25;24.60;63.70
11836;DHT22;5977;51.972;7.640;2022-09-09T11:11:55;24.00;65.20
11836;DHT22;5977;51.972;7.640;2022-09-09T11:14:29;24.10;67.80
11836;DHT22;5977;51.972;7.640;2022-09-09T11:17:08;24.20;67.70
11836;DHT22;5977;51.972;7.640;2022-09-09T11:19:39;24.60;67.50
11836;DHT22;5977;51.972;7.640;2022-09-09T11:22:17;24.60;66.30
11836;DHT22;5977;51.972;7.640;2022-09-09T11:24:49;24.90;67.00
11836;DHT22;5977;51.972;7.640;2022-09-09T11:27:21;24.60;65.00
11836;DHT22;5977;51.972;7.640;2022-09-09T11:30:13;24.60;63.50
11836;DHT22;5977;51.972;7.640;2022-09-09T11:33:37;24.80;65.70
11836;DHT22;5977;51.972;7.640;2022-09-09T11:36:37;24.70;67.30
11836;DHT22;5977;51.972;7.640;2022-09-09T11:39:23;24.80;66.70
11836;DHT22;5977;51.972;7.640;2022-09-09T11:42:07;24.90;66.40
11836;DHT22;5977;51.972;7.640;2022-09-09T11:44:35;24.80;65.00
11836;DHT22;5977;51.972;7.640;2022-09-09T11:47:19;24.50;62.80
11836;DHT22;5977;51.972;7.640;2022-09-09T11:49:48;24.50;65.20
11836;DHT22;5977;51.972;7.640;2022-09-09T11:52:22;24.40;65.50
11836;DHT22;5977;51.972;7.640;2022-09-09T11:54:54;24.80;66.80
11836;DHT22;5977;51.972;7.640;2022-09-09T11:57:35;25.00;65.70
11836;DHT22;5977;51.972;7.640;2022-09-09T12:00:03;24.90;64.70
11836;DHT22;5977;51.972;7.640;2022-09-09T12:02:48;24.60;65.50
11836;DHT22;5977;51.972;7.640;2022-09-09T12:05:17;24.50;62.80
11836;DHT22;5977;51.972;7.640;2022-09-09T12:07:51;24.50;62.50
11836;DHT22;5977;51.972;7.640;2022-09-09T12:10:25;24.60;61.80
11836;DHT22;5977;51.972;7.640;2022-09-09T12:12:55;24.80;64.40
11836;DHT22;5977;51.972;7.640;2022-09-09T12:15:46;24.60;61.10
11836;DHT22;5977;51.972;7.640;2022-09-09T12:18:21;24.50;63.70
11836;DHT22;5977;51.972;7.640;2022-09-09T12:20:57;24.30;62.10
11836;DHT22;5977;51.972;7.640;2022-09-09T12:23:33;24.50;64.10
11836;DHT22;5977;51.972;7.640;2022-09-09T12:26:21;24.80;63.70
11836;DHT22;5977;51.972;7.640;2022-09-09T12:28:59;24.90;63.10
11836;DHT22;5977;51.972;7.640;2022-09-09T12:31:35;24.90;61.20
11836;DHT22;5977;51.972;7.640;2022-09-09T12:34:14;24.90;63.30
11836;DHT22;5977;51.972;7.640;2022-09-09T12:36:47;25.00;62.90
11836;DHT22;5977;51.972;7.640;2022-09-09T12:39:22;25.00;61.20
11836;DHT22;5977;51.972;7.640;2022-09-09T12:41:53;24.70;62.00
11836;DHT22;5977;51.972;7.640;2022-09-09T12:44:26;25.10;63.70
11836;DHT22;5977;51.972;7.640;2022-09-09T12:46:57;25.10;62.20
11836;DHT22;5977;51.972;7.640;2022-09-09T12:49:30;25.30;62.40
11836;DHT22;5977;51.972;7.640;2022-09-09T12:52:02;25.30;63.00
11836;DHT22;5977;51.972;7.640;2022-09-09T12:54:34;25.20;61.30
11836;DHT22;5977;51.972;7.640;2022-09-09T12:57:04;25.10;62.90
11836;DHT22;5977;51.972;7.640;2022-09-09T12:59:38;24.70;58.90
11836;DHT22;5977;51.972;7.640;2022-09-09T13:02:17;24.70;62.70
11836;DHT22;5977;51.972;7.640;2022-09-09T13:04:46;24.80;62.40
11836;DHT22;5977;51.972;7.640;2022-09-09T13:07:14;24.70;60.30
11836;DHT22;5977;51.972;7.640;2022-09-09T13:09:43;24.50;58.60
11836;DHT22;5977;51.972;7.640;2022-09-09T13:12:14;24.50;62.30
11836;DHT22;5977;51.972;7.640;2022-09-09T13:14:46;24.70;59.70
11836;DHT22;5977;51.972;7.640;2022-09-09T13:17:19;24.60;62.60
11836;DHT22;5977;51.972;7.640;2022-09-09T13:19:48;24.90;61.00
11836;DHT22;5977;51.972;7.640;2022-09-09T13:22:27;24.90;61.80
11836;DHT22;5977;51.972;7.640;2022-09-09T13:25:05;25.00;61.00
11836;DHT22;5977;51.972;7.640;2022-09-09T13:27:35;24.90;61.40
11836;DHT22;5977;51.972;7.640;2022-09-09T13:30:21;24.90;61.50
11836;DHT22;5977;51.972;7.640;2022-09-09T13:33:05;24.70;61.30
11836;DHT22;5977;51.972;7.640;2022-09-09T13:35:34;24.60;63.70
11836;DHT22;5977;51.972;7.640;2022-09-09T13:38:09;24.40;65.00
11836;DHT22;5977;51.972;7.640;2022-09-09T13:40:37;24.30;66.80
11836;DHT22;5977;51.972;7.640;2022-09-09T13:43:13;24.50;66.50
11836;DHT22;5977;51.972;7.640;2022-09-09T13:45:53;24.70;66.30
11836;DHT22;5977;51.972;7.640;2022-09-09T13:48:23;24.90;66.70
11836;DHT22;5977;51.972;7.640;2022-09-09T13:51:00;24.60;67.10
11836;DHT22;5977;51.972;7.640;2022-09-09T13:53:28;25.00;66.90
11836;DHT22;5977;51.972;7.640;2022-09-09T13:55:57;25.20;66.40
11836;DHT22;5977;51.972;7.640;2022-09-09T13:58:26;25.20;66.40
11836;DHT22;5977;51.972;7.640;2022-09-09T14:00:55;25.30;66.80
11836;DHT22;5977;51.972;7.640;2022-09-09T14:03:24;25.30;67.50
11836;DHT22;5977;51.972;7.640;2022-09-09T14:05:52;25.10;67.90
11836;DHT22;5977;51.972;7.640;2022-09-09T14:08:24;24.90;68.10
11836;DHT22;5977;51.972;7.640;2022-09-09T14:10:52;25.10;68.40
11836;DHT22;5977;51.972;7.640;2022-09-09T14:13:23;25.10;68.30
11836;DHT22;5977;51.972;7.640;2022-09-09T14:15:52;24.90;68.80
11836;DHT22;5977;51.972;7.640;2022-09-09T14:18:21;25.00;68.80
11836;DHT22;5977;51.972;7.640;2022-09-09T14:20:51;25.10;68.90
11836;DHT22;5977;51.972;7.640;2022-09-09T14:23:21;25.20;68.70
11836;DHT22;5977;51.972;7.640;2022-09-09T14:25:51;25.30;68.70
11836;DHT22;5977;51.972;7.640;2022-09-09T14:28:22;25.30;68.90
11836;DHT22;5977;51.972;7.640;2022-09-09T14:31:10;25.10;70.00
11836;DHT22;5977;51.972;7.640;2022-09-09T14:33:41;24.90;70.70
11836;DHT22;5977;51.972;7.640;2022-09-09T14:36:09;24.40;72.30
11836;DHT22;5977;51.972;7.640;2022-09-09T14:38:38;24.30;72.60
11836;DHT22;5977;51.972;7.640;2022-09-09T14:41:06;24.30;72.80
11836;DHT22;5977;51.972;7.640;2022-09-09T14:43:34;24.30;72.90
11836;DHT22;5977;51.972;7.640;2022-09-09T14:46:05;24.50;72.80
11836;DHT22;5977;51.972;7.640;2022-09-09T14:48:33;24.70;72.10
11836;DHT22;5977;51.972;7.640;2022-09-09T14:51:07;24.60;72.00
11836;DHT22;5977;51.972;7.640;2022-09-09T14:53:35;24.40;72.20
11836;DHT22;5977;51.972;7.640;2022-09-09T14:56:04;24.60;72.00
11836;DHT22;5977;51.972;7.640;2022-09-09T14:58:32;24.60;71.90
11836;DHT22;5977;51.972;7.640;2022-09-09T15:01:05;24.80;71.80
11836;DHT22;5977;51.972;7.640;2022-09-09T15:03:33;24.10;73.20
11836;DHT22;5977;51.972;7.640;2022-09-09T15:06:06;24.60;72.80
11836;DHT22;5977;51.972;7.640;2022-09-09T15:08:35;24.20;73.30
11836;DHT22;5977;51.972;7.640;2022-09-09T15:11:09;23.90;74.70
11836;DHT22;5977;51.972;7.640;2022-09-09T15:13:38;24.30;74.30
11836;DHT22;5977;51.972;7.640;2022-09-09T15:16:08;24.60;73.40
11836;DHT22;5977;51.972;7.640;2022-09-09T15:18:37;24.40;73.60
11836;DHT22;5977;51.972;7.640;2022-09-09T15:21:11;24.30;73.70
11836;DHT22;5977;51.972;7.640;2022-09-09T15:23:39;24.50;73.80
11836;DHT22;5977;51.972;7.640;2022-09-09T15:26:07;24.80;73.20
11836;DHT22;5977;51.972;7.640;2022-09-09T15:28:37;24.80;72.80
11836;DHT22;5977;51.972;7.640;2022-09-09T15:31:06;24.30;74.40
11836;DHT22;5977;51.972;7.640;2022-09-09T15:33:35;24.40;74.30
11836;DHT22;5977;51.972;7.640;2022-09-09T15:36:15;24.20;74.30
11836;DHT22;5977;51.972;7.640;2022-09-09T15:38:43;24.20;74.30
11836;DHT22;5977;51.972;7.640;2022-09-09T15:41:11;24.30;74.30
11836;DHT22;5977;51.972;7.640;2022-09-09T15:43:43;23.90;75.60
11836;DHT22;5977;51.972;7.640;2022-09-09T15:46:27;24.10;75.50
11836;DHT22;5977;51.972;7.640;2022-09-09T15:48:56;22.70;78.70
11836;DHT22;5977;51.972;7.640;2022-09-09T15:51:26;22.20;81.20
11836;DHT22;5977;51.972;7.640;2022-09-09T15:54:10;21.90;85.00
11836;DHT22;5977;51.972;7.640;2022-09-09T15:56:38;21.50;89.20
11836;DHT22;5977;51.972;7.640;2022-09-09T15:59:07;21.20;92.80
11836;DHT22;5977;51.972;7.640;2022-09-09T16:01:35;21.40;93.60
11836;DHT22;5977;51.972;7.640;2022-09-09T16:04:04;21.60;94.00
11836;DHT22;5977;51.972;7.640;2022-09-09T16:06:34;21.30;95.90
11836;DHT22;5977;51.972;7.640;2022-09-09T16:09:05;21.30;95.90
11836;DHT22;5977;51.972;7.640;2022-09-09T16:11:36;21.50;96.60
11836;DHT22;5977;51.972;7.640;2022-09-09T16:14:04;21.70;96.90
11836;DHT22;5977;51.972;7.640;2022-09-09T16:16:33;21.50;96.60
11836;DHT22;5977;51.972;7.640;2022-09-09T16:19:05;21.50;97.00
11836;DHT22;5977;51.972;7.640;2022-09-09T16:21:36;21.50;98.30
11836;DHT22;5977;51.972;7.640;2022-09-09T16:24:07;21.50;97.30
11836;DHT22;5977;51.972;7.640;2022-09-09T16:26:38;21.60;96.70
11836;DHT22;5977;51.972;7.640;2022-09-09T16:29:06;21.30;97.90